Time;durP1;ratioP1;P1;durP2;ratioP2;P2;SDS_P1;SDS_P2;PMS_P1;PMS_P2;Temp;Humidity;BMP_temperature;BMP_pressure;BME280_temperature;BME280_humidity;BME280_pressure;Samples;Min_cycle;Max_cycle;Signal;HPM_P1;HPM_P2
2024/02/25 00:02:25;;;;;;;1.13;0.70;;;5.10;99.90;;;;;;5011489;28;20222;-61
2024/02/25 00:04:52;;;;;;;1.10;1.00;;;5.20;99.90;;;;;;5010841;28;20229;-61
2024/02/25 00:07:19;;;;;;;0.70;0.70;;;5.20;99.90;;;;;;4995231;28;20680;-61
2024/02/25 00:09:46;;;;;;;0.70;0.60;;;5.40;99.90;;;;;;4980408;28;20260;-61
2024/02/25 00:12:13;;;;;;;0.80;0.80;;;5.10;99.90;;;;;;4991747;28;20194;-61
2024/02/25 00:14:40;;;;;;;0.90;0.90;;;5.00;99.90;;;;;;4976422;28;20579;-61
2024/02/25 00:17:07;;;;;;;0.70;0.70;;;5.00;99.90;;;;;;4978992;28;20680;-61
2024/02/25 00:19:36;;;;;;;0.70;0.70;;;5.00;99.90;;;;;;4992022;28;20212;-60
2024/02/25 00:22:03;;;;;;;0.77;0.73;;;5.10;99.90;;;;;;4984344;28;20216;-61
2024/02/25 00:24:29;;;;;;;0.80;0.70;;;5.20;99.90;;;;;;4971497;28;20301;-60
2024/02/25 00:26:56;;;;;;;1.23;0.60;;;5.10;99.90;;;;;;4991604;28;20673;-61
2024/02/25 00:29:23;;;;;;;1.40;1.00;;;5.20;99.90;;;;;;4990470;28;20201;-61
2024/02/25 00:31:50;;;;;;;3.27;0.80;;;5.10;99.90;;;;;;4993651;28;20252;-60
2024/02/25 00:34:17;;;;;;;0.83;0.83;;;5.10;99.90;;;;;;4994740;28;20269;-61
2024/02/25 00:36:48;;;;;;;1.10;1.10;;;5.10;99.90;;;;;;4993675;28;20534;-61
2024/02/25 00:39:16;;;;;;;0.83;0.83;;;5.00;99.90;;;;;;4995441;28;20205;-60
2024/02/25 00:41:43;;;;;;;2.57;1.33;;;5.10;99.90;;;;;;4995179;28;20324;-61
2024/02/25 00:44:10;;;;;;;1.93;1.40;;;5.20;99.90;;;;;;4994494;28;20255;-61
2024/02/25 00:46:37;;;;;;;3.37;1.33;;;5.20;99.90;;;;;;4993653;28;20202;-61
2024/02/25 00:49:04;;;;;;;1.23;1.13;;;5.20;99.90;;;;;;4994895;28;20208;-61
2024/02/25 00:51:31;;;;;;;1.60;1.50;;;5.20;99.90;;;;;;4986074;28;20199;-61
2024/02/25 00:54:00;;;;;;;1.47;1.30;;;5.20;99.90;;;;;;4994272;28;20251;-61
2024/02/25 00:56:27;;;;;;;1.70;1.60;;;5.10;99.90;;;;;;4994879;28;20641;-61
2024/02/25 00:58:54;;;;;;;1.47;1.10;;;5.10;99.90;;;;;;4973500;28;20680;-61
2024/02/25 01:01:20;;;;;;;2.27;2.10;;;5.20;99.90;;;;;;4975424;28;20255;-61
2024/02/25 01:03:47;;;;;;;2.77;2.57;;;5.10;99.90;;;;;;4972557;28;20206;-61
2024/02/25 01:06:14;;;;;;;1.30;1.20;;;5.10;99.90;;;;;;4976398;28;20267;-61
2024/02/25 01:08:42;;;;;;;1.60;1.50;;;5.10;99.90;;;;;;4991706;28;20671;-61
2024/02/25 01:11:11;;;;;;;0.60;0.60;;;5.10;99.90;;;;;;4985423;28;20294;-61
2024/02/25 01:13:38;;;;;;;1.13;0.60;;;5.00;99.90;;;;;;4989914;28;20201;-61
2024/02/25 01:16:05;;;;;;;0.40;0.40;;;4.90;99.90;;;;;;4990744;28;20324;-61
2024/02/25 01:18:33;;;;;;;0.40;0.40;;;4.90;99.90;;;;;;4994513;28;20209;-61
2024/02/25 01:21:01;;;;;;;1.80;0.50;;;5.00;99.90;;;;;;4992565;28;20206;-61
2024/02/25 01:23:28;;;;;;;0.73;0.70;;;5.00;99.90;;;;;;4975032;28;20273;-61
2024/02/25 01:25:54;;;;;;;0.90;0.60;;;4.90;99.90;;;;;;4975498;28;20233;-60
2024/02/25 01:28:23;;;;;;;0.80;0.60;;;4.90;99.90;;;;;;4989932;28;20203;-61
2024/02/25 01:30:50;;;;;;;0.60;0.60;;;4.80;99.90;;;;;;4992960;28;20746;-61
2024/02/25 01:33:17;;;;;;;1.37;0.70;;;4.80;99.90;;;;;;4980685;28;20688;-61
2024/02/25 01:35:44;;;;;;;0.60;0.60;;;4.80;99.90;;;;;;4973900;28;20283;-61
2024/02/25 01:38:11;;;;;;;0.57;0.57;;;4.80;99.90;;;;;;4987713;28;20210;-61
2024/02/25 01:40:38;;;;;;;0.70;0.50;;;4.70;99.90;;;;;;4993453;28;20205;-60
2024/02/25 01:43:12;;;;;;;0.43;0.43;;;4.80;99.90;;;;;;4973857;28;20268;-60
2024/02/25 01:45:41;;;;;;;0.57;0.50;;;4.80;99.90;;;;;;4973774;28;20294;-61
2024/02/25 01:48:09;;;;;;;0.77;0.60;;;4.80;99.90;;;;;;4981345;28;20206;-61
2024/02/25 01:50:37;;;;;;;1.10;0.50;;;4.80;99.90;;;;;;4987287;28;20205;-61
2024/02/25 01:53:05;;;;;;;1.33;0.40;;;4.90;99.90;;;;;;4994281;28;20211;-61
2024/02/25 01:55:34;;;;;;;0.60;0.50;;;4.90;99.90;;;;;;4991522;28;20661;-61
2024/02/25 01:58:03;;;;;;;0.50;0.50;;;5.00;99.90;;;;;;4993871;28;20205;-61
2024/02/25 02:00:32;;;;;;;0.77;0.77;;;4.90;99.90;;;;;;4993545;28;20689;-61
2024/02/25 02:03:01;;;;;;;0.40;0.40;;;4.90;99.90;;;;;;4993544;28;20223;-61
2024/02/25 02:05:28;;;;;;;1.63;0.40;;;4.80;99.90;;;;;;4992712;28;20277;-61
2024/02/25 02:07:55;;;;;;;0.73;0.73;;;4.90;99.90;;;;;;4991756;28;20690;-60
2024/02/25 02:10:22;;;;;;;0.40;0.40;;;4.90;99.90;;;;;;4989137;28;20208;-61
2024/02/25 02:12:49;;;;;;;1.00;0.60;;;4.90;99.90;;;;;;4987537;28;20204;-61
2024/02/25 02:15:17;;;;;;;0.40;0.40;;;4.90;99.90;;;;;;4988917;28;20709;-61
2024/02/25 02:17:46;;;;;;;0.70;0.50;;;4.90;99.90;;;;;;4985908;28;20256;-61
2024/02/25 02:20:18;;;;;;;1.63;0.60;;;4.90;99.90;;;;;;4993775;28;20296;-61
2024/02/25 02:22:47;;;;;;;1.60;0.60;;;4.90;99.90;;;;;;4993392;28;20226;-61
2024/02/25 02:25:16;;;;;;;1.13;0.70;;;4.80;99.90;;;;;;4992619;28;20226;-61
2024/02/25 02:27:44;;;;;;;1.50;0.60;;;4.90;99.90;;;;;;4984598;28;20199;-61
2024/02/25 02:30:12;;;;;;;0.73;0.67;;;4.70;99.90;;;;;;4993599;28;20209;-61
2024/02/25 02:32:39;;;;;;;15.90;1.40;;;4.80;99.90;;;;;;4992159;28;20637;-60
2024/02/25 02:35:07;;;;;;;1.00;0.90;;;4.90;99.90;;;;;;4992013;28;20243;-61
2024/02/25 02:37:37;;;;;;;0.90;0.90;;;4.80;99.90;;;;;;4991308;28;20209;-60
2024/02/25 02:40:06;;;;;;;0.83;0.80;;;4.80;99.90;;;;;;4985045;28;20622;-61
2024/02/25 02:42:34;;;;;;;1.80;0.80;;;4.80;99.90;;;;;;4973503;28;20234;-61
2024/02/25 02:45:01;;;;;;;0.70;0.70;;;4.70;99.90;;;;;;4998928;23;20280;-60
2024/02/25 02:47:28;;;;;;;0.97;0.97;;;4.50;99.90;;;;;;4993097;28;20244;-60
2024/02/25 02:49:55;;;;;;;0.70;0.67;;;4.40;99.90;;;;;;4992596;28;20264;-60
2024/02/25 02:52:22;;;;;;;1.27;0.97;;;4.40;99.90;;;;;;4992848;28;20229;-60
2024/02/25 02:54:49;;;;;;;1.13;0.60;;;4.50;99.90;;;;;;4991070;28;20227;-60
2024/02/25 02:57:18;;;;;;;0.70;0.70;;;4.50;99.90;;;;;;4992430;28;20218;-61
2024/02/25 02:59:45;;;;;;;1.10;0.90;;;4.30;99.90;;;;;;4992284;28;20200;-60
2024/02/25 03:02:12;;;;;;;1.17;0.80;;;4.40;99.90;;;;;;4981654;28;20223;-61
2024/02/25 03:04:39;;;;;;;0.83;0.83;;;4.40;99.90;;;;;;4970676;28;20211;-60
2024/02/25 03:07:06;;;;;;;0.80;0.80;;;4.40;99.90;;;;;;4985086;28;20550;-60
2024/02/25 03:09:33;;;;;;;2.07;0.77;;;4.30;99.90;;;;;;4994669;28;20228;-60
2024/02/25 03:12:00;;;;;;;0.57;0.53;;;4.40;99.90;;;;;;5012860;28;20237;-60
2024/02/25 03:14:31;;;;;;;1.13;0.80;;;4.40;99.90;;;;;;4991578;28;20206;-60
2024/02/25 03:16:58;;;;;;;1.17;0.80;;;4.20;99.90;;;;;;4985453;28;20206;-60
2024/02/25 03:19:25;;;;;;;1.70;1.30;;;4.10;99.90;;;;;;4992772;28;20260;-61
2024/02/25 03:21:52;;;;;;;1.23;1.23;;;4.10;99.90;;;;;;4992354;28;20203;-63
2024/02/25 03:24:20;;;;;;;2.17;1.00;;;4.10;99.90;;;;;;4994712;28;20277;-61
2024/02/25 03:26:51;;;;;;;1.10;1.00;;;4.10;99.90;;;;;;4979120;28;20226;-61
2024/02/25 03:29:18;;;;;;;1.30;1.20;;;3.90;99.90;;;;;;4973439;28;20257;-60
2024/02/25 03:31:47;;;;;;;1.57;1.47;;;3.90;99.90;;;;;;4973001;28;20274;-60
2024/02/25 03:34:15;;;;;;;1.37;0.97;;;3.90;99.90;;;;;;4987597;28;20252;-60
2024/02/25 03:36:42;;;;;;;1.37;1.03;;;3.80;99.90;;;;;;4985169;28;20264;-60
2024/02/25 03:39:09;;;;;;;0.90;0.90;;;3.80;99.90;;;;;;4992853;28;20628;-60
2024/02/25 03:41:36;;;;;;;0.83;0.83;;;3.80;99.90;;;;;;4985027;28;20618;-63
2024/02/25 03:44:03;;;;;;;3.17;1.03;;;3.70;99.90;;;;;;4991590;28;20225;-60
2024/02/25 03:46:30;;;;;;;1.17;0.97;;;3.60;99.90;;;;;;4991984;28;20238;-60
2024/02/25 03:48:58;;;;;;;2.60;1.43;;;3.60;99.90;;;;;;4992374;28;20208;-60
2024/02/25 03:51:25;;;;;;;1.40;1.23;;;3.70;99.90;;;;;;4991486;28;20257;-60
2024/02/25 03:53:52;;;;;;;1.23;1.00;;;3.60;99.90;;;;;;4991576;28;20210;-61
2024/02/25 03:56:19;;;;;;;1.93;1.30;;;3.50;99.90;;;;;;4996003;28;20287;-60
2024/02/25 03:58:46;;;;;;;1.40;1.07;;;3.50;99.90;;;;;;5011820;28;20734;-61
2024/02/25 04:01:13;;;;;;;1.37;1.37;;;3.70;99.90;;;;;;5011879;28;20200;-61
2024/02/25 04:03:40;;;;;;;3.77;1.07;;;3.60;99.90;;;;;;5011584;28;20726;-60
2024/02/25 04:06:09;;;;;;;1.67;0.97;;;3.60;99.90;;;;;;4995933;28;20740;-60
2024/02/25 04:08:36;;;;;;;1.47;1.40;;;3.60;99.90;;;;;;4996027;28;20205;-60
2024/02/25 04:11:03;;;;;;;1.80;1.63;;;3.50;99.90;;;;;;4996186;28;20201;-60
2024/02/25 04:13:30;;;;;;;1.10;1.00;;;3.60;99.90;;;;;;4989516;28;20245;-60
2024/02/25 04:15:57;;;;;;;1.10;1.10;;;3.60;99.90;;;;;;4988370;28;20233;-60
2024/02/25 04:18:24;;;;;;;2.23;2.03;;;3.70;99.90;;;;;;4984547;28;20783;-60
2024/02/25 04:20:51;;;;;;;1.70;1.60;;;3.50;99.90;;;;;;4986853;28;20207;-60
2024/02/25 04:23:21;;;;;;;1.37;1.20;;;3.50;99.90;;;;;;4976639;28;20657;-61
2024/02/25 04:25:48;;;;;;;0.90;0.90;;;3.60;99.90;;;;;;4975894;28;20238;-60
2024/02/25 04:28:15;;;;;;;1.83;1.20;;;3.60;99.90;;;;;;5000160;28;20267;-60
2024/02/25 04:30:42;;;;;;;1.77;1.63;;;3.60;99.90;;;;;;5015048;28;20209;-61
2024/02/25 04:33:09;;;;;;;2.23;2.13;;;3.50;99.90;;;;;;5004531;28;20252;-61
2024/02/25 04:35:36;;;;;;;2.33;1.40;;;3.50;99.90;;;;;;4994688;28;20237;-61
2024/02/25 04:38:05;;;;;;;1.93;1.83;;;3.30;99.90;;;;;;4995722;28;20209;-61
2024/02/25 04:40:33;;;;;;;1.90;1.77;;;3.30;99.90;;;;;;4995699;28;20292;-61
2024/02/25 04:43:00;;;;;;;1.33;1.33;;;3.40;99.90;;;;;;4995362;28;20711;-61
2024/02/25 04:45:27;;;;;;;1.23;1.13;;;3.40;99.90;;;;;;4979417;28;20722;-60
2024/02/25 04:47:55;;;;;;;2.20;1.80;;;3.30;99.90;;;;;;4976259;28;20587;-60
2024/02/25 04:50:22;;;;;;;1.50;1.33;;;3.30;99.90;;;;;;4975862;28;20301;-60
2024/02/25 04:52:49;;;;;;;1.73;1.53;;;3.40;99.90;;;;;;4981514;28;20198;-60
2024/02/25 04:55:16;;;;;;;1.80;1.70;;;3.30;99.90;;;;;;4994574;28;20225;-61
2024/02/25 04:57:44;;;;;;;1.23;1.23;;;3.30;99.90;;;;;;4994618;28;20255;-60
2024/02/25 05:00:12;;;;;;;1.83;1.73;;;3.20;99.90;;;;;;4991423;28;20206;-61
2024/02/25 05:02:40;;;;;;;2.47;1.57;;;3.20;99.90;;;;;;4994744;28;20241;-61
2024/02/25 05:05:09;;;;;;;1.47;1.37;;;3.20;99.90;;;;;;4994334;28;20224;-62
2024/02/25 05:07:38;;;;;;;1.70;1.57;;;3.20;99.90;;;;;;4995225;28;20205;-61
2024/02/25 05:10:06;;;;;;;2.13;1.77;;;3.10;99.90;;;;;;4993915;28;20210;-61
2024/02/25 05:12:36;;;;;;;2.07;1.63;;;3.20;99.90;;;;;;4995298;28;20296;-61
2024/02/25 05:15:06;;;;;;;2.03;1.93;;;3.10;99.90;;;;;;4992188;28;20238;-61
2024/02/25 05:17:33;;;;;;;1.63;1.50;;;3.00;99.90;;;;;;4994536;28;20201;-61
2024/02/25 05:20:00;;;;;;;2.60;2.40;;;3.10;99.90;;;;;;5003334;28;20260;-61
2024/02/25 05:22:27;;;;;;;1.90;1.80;;;3.00;99.90;;;;;;4995717;28;20202;-61
2024/02/25 05:24:54;;;;;;;2.20;2.10;;;3.00;99.90;;;;;;4993275;28;20233;-61
2024/02/25 05:27:28;;;;;;;5.27;2.20;;;3.00;99.90;;;;;;4994479;28;20682;-61
2024/02/25 05:29:55;;;;;;;2.53;2.17;;;3.00;99.90;;;;;;4990466;28;20833;-61
2024/02/25 05:32:24;;;;;;;2.40;2.20;;;3.00;99.90;;;;;;4995079;28;20198;-61
2024/02/25 05:34:51;;;;;;;4.07;2.40;;;3.20;99.90;;;;;;4996688;28;20249;-61
2024/02/25 05:37:18;;;;;;;1.83;1.73;;;2.90;99.90;;;;;;4998838;28;20293;-62
2024/02/25 05:39:45;;;;;;;1.90;1.47;;;3.10;99.90;;;;;;4997886;28;20202;-62
2024/02/25 05:42:12;;;;;;;1.70;1.60;;;2.90;99.90;;;;;;4994043;28;20658;-63
2024/02/25 05:44:39;;;;;;;2.37;1.47;;;2.90;99.90;;;;;;4993026;28;20268;-62
2024/02/25 05:47:07;;;;;;;1.70;1.60;;;2.90;99.90;;;;;;4994074;28;20260;-63
2024/02/25 05:49:35;;;;;;;2.53;2.33;;;2.80;99.90;;;;;;4986254;28;20268;-63
2024/02/25 05:52:04;;;;;;;1.87;1.77;;;3.50;99.90;;;;;;5005362;28;20220;-64
2024/02/25 05:54:31;;;;;;;1.63;1.53;;;2.80;99.90;;;;;;4993295;28;20227;-62
2024/02/25 05:56:58;;;;;;;1.70;1.60;;;2.70;99.90;;;;;;4994160;28;20241;-63
2024/02/25 05:59:25;;;;;;;3.40;3.10;;;2.60;99.90;;;;;;4987147;28;20202;-61
2024/02/25 06:01:52;;;;;;;2.37;2.17;;;2.60;99.90;;;;;;5000528;28;20210;-62
2024/02/25 06:04:20;;;;;;;2.57;2.37;;;2.60;99.90;;;;;;5003933;28;20228;-62
2024/02/25 06:06:52;;;;;;;2.28;2.08;;;2.50;99.90;;;;;;4993514;28;21055;-62
2024/02/25 06:09:19;;;;;;;2.57;2.37;;;2.60;99.90;;;;;;4988333;28;20262;-62
2024/02/25 06:11:48;;;;;;;2.00;1.70;;;2.60;99.90;;;;;;4984738;28;20216;-63
2024/02/25 06:14:15;;;;;;;1.43;1.33;;;2.70;99.90;;;;;;4985277;28;20206;-63
2024/02/25 06:16:43;;;;;;;1.90;1.80;;;2.80;99.90;;;;;;4989920;28;20285;-64
2024/02/25 06:19:10;;;;;;;3.15;2.03;;;2.60;99.90;;;;;;4987124;28;20460;-63
2024/02/25 06:21:37;;;;;;;2.17;2.03;;;2.70;99.90;;;;;;4994352;28;20232;-64
2024/02/25 06:24:06;;;;;;;2.30;2.10;;;2.90;99.90;;;;;;4992359;28;20740;-64
2024/02/25 06:26:34;;;;;;;1.93;1.83;;;2.70;99.90;;;;;;4988827;28;20277;-64
2024/02/25 06:29:02;;;;;;;1.67;1.57;;;2.80;99.90;;;;;;4990078;28;20242;-64
2024/02/25 06:31:32;;;;;;;1.67;1.57;;;2.50;99.90;;;;;;4993271;28;20537;-64
2024/02/25 06:34:00;;;;;;;2.43;1.43;;;2.40;99.90;;;;;;4990467;28;20621;-64
2024/02/25 06:36:29;;;;;;;1.97;1.87;;;2.60;99.90;;;;;;4992968;28;20253;-64
2024/02/25 06:38:58;;;;;;;1.80;1.63;;;2.40;99.90;;;;;;4992272;28;20210;-64
2024/02/25 06:41:27;;;;;;;2.07;1.90;;;2.50;99.90;;;;;;4993029;28;20212;-64
2024/02/25 06:43:54;;;;;;;1.73;1.63;;;2.60;99.90;;;;;;4991667;28;20728;-64
2024/02/25 06:46:21;;;;;;;2.37;2.13;;;2.50;99.90;;;;;;4992769;28;20238;-63
2024/02/25 06:48:48;;;;;;;1.60;1.50;;;2.60;99.90;;;;;;4991671;28;20348;-64
2024/02/25 06:51:22;;;;;;;3.10;1.93;;;2.60;99.90;;;;;;4992698;28;20201;-64
2024/02/25 06:53:49;;;;;;;2.30;2.10;;;2.60;99.90;;;;;;4991836;28;20220;-64
2024/02/25 06:56:17;;;;;;;4.23;3.93;;;2.80;99.90;;;;;;4986527;28;20229;-64
2024/02/25 06:58:46;;;;;;;4.47;4.20;;;3.20;99.90;;;;;;4992259;28;20220;-64
2024/02/25 07:01:13;;;;;;;3.07;2.87;;;3.60;99.90;;;;;;4992337;28;20640;-64
2024/02/25 07:03:45;;;;;;;1.87;1.70;;;4.00;99.90;;;;;;4991829;28;20261;-64
2024/02/25 07:06:13;;;;;;;2.17;2.07;;;4.00;99.90;;;;;;4991568;28;20225;-64
2024/02/25 07:08:44;;;;;;;2.33;2.23;;;4.50;99.90;;;;;;4991681;28;20210;-64
2024/02/25 07:11:21;;;;;;;1.80;1.70;;;4.60;99.90;;;;;;4986560;28;20256;-64
2024/02/25 07:13:51;;;;;;;2.80;2.50;;;4.60;99.90;;;;;;4989543;28;20201;-64
2024/02/25 07:16:18;;;;;;;2.33;2.23;;;4.70;99.90;;;;;;4976848;28;20228;-64
2024/02/25 07:18:45;;;;;;;2.17;1.93;;;4.70;99.90;;;;;;4988846;28;20229;-64
2024/02/25 07:21:13;;;;;;;3.40;2.77;;;4.80;99.90;;;;;;4983184;28;20285;-64
2024/02/25 07:23:41;;;;;;;2.53;2.27;;;4.80;99.90;;;;;;4992005;28;20311;-64
2024/02/25 07:26:09;;;;;;;2.97;2.33;;;4.80;99.90;;;;;;4991111;28;20283;-64
2024/02/25 07:28:41;;;;;;;2.13;1.90;;;5.00;99.90;;;;;;4992341;28;20209;-64
2024/02/25 07:31:13;;;;;;;2.53;2.33;;;5.30;99.90;;;;;;4991876;28;20680;-64
2024/02/25 07:33:40;;;;;;;1.90;1.73;;;5.50;99.90;;;;;;4991191;28;20804;-64
2024/02/25 07:36:10;;;;;;;1.30;1.30;;;5.60;99.90;;;;;;4991103;28;20273;-64
2024/02/25 07:38:38;;;;;;;1.40;1.30;;;5.50;99.90;;;;;;4992115;28;20202;-64
2024/02/25 07:41:05;;;;;;;0.73;0.73;;;5.70;99.90;;;;;;4993237;28;20244;-65
2024/02/25 07:43:33;;;;;;;1.40;1.30;;;5.90;99.90;;;;;;4992315;28;20208;-64
2024/02/25 07:46:01;;;;;;;2.43;0.90;;;5.90;99.90;;;;;;4990666;28;20368;-64
2024/02/25 07:48:29;;;;;;;1.33;0.83;;;6.30;99.90;;;;;;4988810;28;20205;-65
2024/02/25 07:50:56;;;;;;;1.73;1.13;;;6.60;99.90;;;;;;4990506;28;20257;-64
2024/02/25 07:53:24;;;;;;;1.53;0.87;;;7.00;99.90;;;;;;4991940;28;20671;-64
2024/02/25 07:55:51;;;;;;;1.00;1.00;;;7.40;99.90;;;;;;4990795;28;20257;-64
2024/02/25 07:58:18;;;;;;;0.80;0.80;;;7.90;99.90;;;;;;4991693;28;20200;-65
2024/02/25 08:00:45;;;;;;;1.13;0.70;;;8.10;99.90;;;;;;4992023;28;20206;-64
2024/02/25 08:03:13;;;;;;;1.93;1.00;;;8.50;99.90;;;;;;4991862;28;20207;-64
2024/02/25 08:05:43;;;;;;;1.43;0.93;;;8.80;99.90;;;;;;4990763;28;20237;-64
2024/02/25 08:08:10;;;;;;;1.00;1.00;;;9.20;99.90;;;;;;4991239;28;20288;-65
2024/02/25 08:10:37;;;;;;;0.90;0.90;;;9.30;99.90;;;;;;4991674;28;20201;-65
2024/02/25 08:13:05;;;;;;;2.43;1.23;;;9.60;99.90;;;;;;4991452;28;20206;-64
2024/02/25 08:15:32;;;;;;;1.40;1.30;;;9.90;99.90;;;;;;4987118;28;20223;-64
2024/02/25 08:18:02;;;;;;;1.47;1.33;;;10.00;99.90;;;;;;4991253;28;20208;-64
2024/02/25 08:20:29;;;;;;;1.87;1.70;;;9.80;99.90;;;;;;4991562;28;20202;-65
2024/02/25 08:22:57;;;;;;;2.30;2.00;;;9.70;99.90;;;;;;4990982;28;20237;-65
2024/02/25 08:25:24;;;;;;;1.47;0.90;;;9.80;99.90;;;;;;4993613;28;20361;-64
2024/02/25 08:27:52;;;;;;;1.17;1.10;;;9.70;99.90;;;;;;4994154;28;20820;-64
2024/02/25 08:30:20;;;;;;;1.40;1.30;;;9.90;99.90;;;;;;4994743;28;20208;-64
2024/02/25 08:32:47;;;;;;;1.03;0.90;;;9.80;99.90;;;;;;4999268;28;20209;-64
2024/02/25 08:35:14;;;;;;;3.07;1.30;;;9.70;99.90;;;;;;4978958;28;20309;-64
2024/02/25 08:37:41;;;;;;;1.03;1.00;;;9.90;99.90;;;;;;4980004;28;20207;-64
2024/02/25 08:40:10;;;;;;;0.93;0.60;;;9.80;99.90;;;;;;4981539;28;20222;-64
2024/02/25 08:42:40;;;;;;;0.53;0.53;;;9.90;99.90;;;;;;4987922;28;20293;-65
2024/02/25 08:45:08;;;;;;;0.40;0.40;;;9.90;99.90;;;;;;4998615;28;20701;-64
2024/02/25 08:47:38;;;;;;;0.70;0.70;;;10.20;99.90;;;;;;4994774;28;20206;-64
2024/02/25 08:50:07;;;;;;;0.67;0.60;;;10.10;99.90;;;;;;4985837;28;20207;-64
2024/02/25 08:52:34;;;;;;;0.93;0.80;;;10.00;99.90;;;;;;4989541;28;20206;-63
2024/02/25 08:55:00;;;;;;;0.43;0.43;;;10.00;99.90;;;;;;4978157;28;20217;-64
2024/02/25 08:57:32;;;;;;;0.50;0.50;;;9.70;99.90;;;;;;4985205;28;20195;-64
2024/02/25 08:59:59;;;;;;;2.63;0.70;;;9.50;99.90;;;;;;4989777;28;20202;-64
2024/02/25 09:02:26;;;;;;;0.67;0.67;;;9.40;99.90;;;;;;4997660;28;20659;-64
2024/02/25 09:04:53;;;;;;;0.87;0.87;;;8.90;99.90;;;;;;4991680;28;20776;-64
2024/02/25 09:07:20;;;;;;;0.73;0.73;;;8.80;99.90;;;;;;4991821;28;20262;-64
2024/02/25 09:09:47;;;;;;;0.53;0.50;;;9.10;99.90;;;;;;4993685;28;20248;-64
2024/02/25 09:12:14;;;;;;;1.17;0.70;;;9.10;99.90;;;;;;4993722;28;20289;-64
2024/02/25 09:14:42;;;;;;;0.50;0.50;;;9.90;99.90;;;;;;4994419;28;20197;-64
2024/02/25 09:17:09;;;;;;;0.30;0.30;;;11.20;99.90;;;;;;5001818;28;20206;-64
2024/02/25 09:19:36;;;;;;;1.07;0.40;;;12.00;99.90;;;;;;4992818;28;20254;-64
2024/02/25 09:22:03;;;;;;;1.07;0.70;;;12.70;99.90;;;;;;5002660;28;20210;-65
2024/02/25 09:24:30;;;;;;;0.50;0.50;;;13.60;99.90;;;;;;4985794;28;20217;-65
2024/02/25 09:26:57;;;;;;;0.30;0.30;;;14.00;99.90;;;;;;4985869;28;20214;-73
2024/02/25 09:29:24;;;;;;;0.40;0.40;;;14.50;99.90;;;;;;4999272;28;20199;-72
2024/02/25 09:31:55;;;;;;;0.33;0.30;;;14.90;99.90;;;;;;5002696;28;20207;-75
2024/02/25 09:34:23;;;;;;;0.93;0.87;;;15.50;99.90;;;;;;4997133;28;20198;-70
2024/02/25 09:36:50;;;;;;;0.50;0.50;;;15.90;99.90;;;;;;4995772;28;20274;-72
2024/02/25 09:39:18;;;;;;;0.57;0.50;;;16.10;99.90;;;;;;4990289;28;20215;-72
2024/02/25 09:41:51;;;;;;;1.50;0.50;;;15.90;99.90;;;;;;4988938;28;20204;-74
2024/02/25 09:44:23;;;;;;;1.13;0.40;;;15.80;99.90;;;;;;4986028;28;20271;-69
2024/02/25 09:46:52;;;;;;;0.50;0.50;;;15.70;99.90;;;;;;4988526;28;20584;-75
2024/02/25 09:49:23;;;;;;;0.60;0.60;;;15.50;99.90;;;;;;4994977;28;20201;-72
2024/02/25 09:51:53;;;;;;;0.57;0.57;;;15.90;99.90;;;;;;4992935;28;20203;-76
2024/02/25 09:54:20;;;;;;;0.47;0.47;;;16.60;99.90;;;;;;4990482;28;20671;-72
2024/02/25 09:56:49;;;;;;;0.43;0.40;;;16.10;99.90;;;;;;4982584;28;20231;-63
2024/02/25 09:59:16;;;;;;;0.30;0.30;;;15.00;99.90;;;;;;4985250;28;20297;-63
2024/02/25 10:01:45;;;;;;;1.43;0.40;;;15.60;99.90;;;;;;4982494;28;20289;-64
2024/02/25 10:04:13;;;;;;;0.40;0.40;;;16.00;99.90;;;;;;4987371;28;20216;-65
2024/02/25 10:06:41;;;;;;;0.67;0.37;;;;;;;;;;4985333;28;20286;-65
2024/02/25 10:09:11;;;;;;;0.50;0.40;;;16.80;99.90;;;;;;4985436;28;20233;-63
2024/02/25 10:11:39;;;;;;;0.57;0.57;;;16.60;99.90;;;;;;4981228;28;20941;-64
2024/02/25 10:14:07;;;;;;;0.50;0.50;;;16.90;99.90;;;;;;4991525;28;20679;-64
2024/02/25 10:16:34;;;;;;;0.73;0.40;;;17.20;99.90;;;;;;4995720;28;20274;-64
2024/02/25 10:19:02;;;;;;;0.70;0.20;;;16.90;99.90;;;;;;4992771;28;20208;-64
2024/02/25 10:21:29;;;;;;;0.30;0.30;;;;;;;;;;4991138;28;20200;-64
2024/02/25 10:23:58;;;;;;;2.37;0.40;;;17.00;99.90;;;;;;4981455;28;21227;-64
2024/02/25 10:26:26;;;;;;;0.40;0.40;;;16.80;99.90;;;;;;4987758;28;20766;-64
2024/02/25 10:29:05;;;;;;;0.90;0.60;;;16.20;99.90;;;;;;4990201;28;20203;-63
2024/02/25 10:31:33;;;;;;;0.53;0.53;;;15.90;99.90;;;;;;4995383;28;20192;-64
2024/02/25 10:34:00;;;;;;;1.33;0.50;;;16.00;99.90;;;;;;4987909;28;20291;-63
2024/02/25 10:36:27;;;;;;;1.30;0.40;;;16.00;99.90;;;;;;4990246;28;20223;-64
2024/02/25 10:38:55;;;;;;;0.30;0.30;;;15.80;99.90;;;;;;4990174;28;20266;-63
2024/02/25 10:41:26;;;;;;;0.40;0.23;;;15.60;99.90;;;;;;4993042;28;20238;-64
2024/02/25 10:43:58;;;;;;;0.27;0.27;;;16.00;99.90;;;;;;4982709;28;20200;-65
2024/02/25 10:46:32;;;;;;;0.40;0.40;;;16.10;99.90;;;;;;4991832;28;20219;-65
2024/02/25 10:49:04;;;;;;;0.50;0.50;;;15.80;99.90;;;;;;4992333;28;20742;-64
2024/02/25 10:51:31;;;;;;;0.90;0.90;;;16.10;99.90;;;;;;4992981;28;20293;-64
2024/02/25 10:53:58;;;;;;;2.33;2.10;;;16.40;99.90;;;;;;4999194;28;20210;-64
2024/02/25 10:56:29;;;;;;;0.97;0.97;;;15.00;99.90;;;;;;5004859;28;20219;-64
2024/02/25 10:58:57;;;;;;;1.10;1.00;;;14.40;99.90;;;;;;4997746;28;20219;-64
2024/02/25 11:01:26;;;;;;;0.70;0.67;;;14.10;99.90;;;;;;4992162;28;20583;-64
2024/02/25 11:03:53;;;;;;;1.53;0.70;;;13.60;99.90;;;;;;4998808;28;20206;-65
2024/02/25 11:06:31;;;;;;;1.00;0.80;;;13.10;99.90;;;;;;5003899;28;20645;-64
2024/02/25 11:09:02;;;;;;;0.67;0.60;;;12.50;99.90;;;;;;4996507;28;20196;-64
2024/02/25 11:11:31;;;;;;;1.80;1.27;;;12.20;99.90;;;;;;4992352;28;20218;-64
2024/02/25 11:14:00;;;;;;;2.20;2.10;;;12.20;99.90;;;;;;4986478;28;20208;-64
2024/02/25 11:16:31;;;;;;;1.40;1.30;;;12.20;99.90;;;;;;4996221;28;20305;-64
2024/02/25 11:19:01;;;;;;;1.00;1.00;;;12.30;99.90;;;;;;5003726;28;20237;-64
2024/02/25 11:21:33;;;;;;;0.90;0.90;;;12.30;99.90;;;;;;5011997;28;20277;-64
2024/02/25 11:24:00;;;;;;;1.97;0.90;;;12.30;99.90;;;;;;5009107;28;20206;-64
2024/02/25 11:26:44;;;;;;;0.90;0.90;;;11.90;99.90;;;;;;5011668;28;20230;-64
2024/02/25 11:29:14;;;;;;;1.43;0.97;;;12.00;99.90;;;;;;4996446;28;20674;-64
2024/02/25 11:31:55;;;;;;;1.00;1.00;;;12.00;99.90;;;;;;4998305;28;20229;-64
2024/02/25 11:34:24;;;;;;;0.60;0.60;;;12.00;99.90;;;;;;4991478;28;20284;-64
2024/02/25 11:36:52;;;;;;;1.40;1.30;;;11.90;99.90;;;;;;4992141;28;20605;-64
2024/02/25 11:39:22;;;;;;;0.90;0.90;;;11.70;99.90;;;;;;4989862;28;20305;-63
2024/02/25 11:41:50;;;;;;;0.97;0.97;;;11.50;99.90;;;;;;5004951;28;20297;-64
2024/02/25 11:44:18;;;;;;;1.03;0.90;;;11.60;99.90;;;;;;4988411;28;20726;-64
2024/02/25 11:46:45;;;;;;;1.00;0.90;;;11.60;99.90;;;;;;4991873;28;20732;-64
2024/02/25 11:49:15;;;;;;;1.10;1.10;;;11.60;99.90;;;;;;4992062;28;20237;-64
2024/02/25 11:51:45;;;;;;;0.90;0.73;;;11.80;99.90;;;;;;4991292;28;20213;-64
2024/02/25 11:54:13;;;;;;;1.07;1.07;;;11.70;99.90;;;;;;4998241;28;20202;-64
2024/02/25 11:56:40;;;;;;;2.33;1.37;;;11.60;99.90;;;;;;5006555;28;20302;-64
2024/02/25 11:59:09;;;;;;;1.20;1.13;;;11.70;99.90;;;;;;5009331;28;20811;-64
2024/02/25 12:01:37;;;;;;;1.30;1.17;;;11.70;99.90;;;;;;4995127;28;20285;-64
2024/02/25 12:04:04;;;;;;;1.10;1.10;;;11.40;99.90;;;;;;4989098;28;20292;-63
2024/02/25 12:06:34;;;;;;;1.00;1.00;;;11.40;99.90;;;;;;4996152;28;20280;-64
2024/02/25 12:09:01;;;;;;;0.80;0.80;;;11.20;99.90;;;;;;4992979;28;20202;-64
2024/02/25 12:11:28;;;;;;;1.57;1.23;;;11.20;99.90;;;;;;4982903;28;20734;-64
2024/02/25 12:14:03;;;;;;;2.60;2.40;;;11.00;99.90;;;;;;4997017;28;20252;-64
2024/02/25 12:16:33;;;;;;;1.53;0.93;;;11.20;99.90;;;;;;4991539;28;20221;-64
2024/02/25 12:19:00;;;;;;;1.47;1.37;;;11.30;99.90;;;;;;4990895;28;20207;-64
2024/02/25 12:21:28;;;;;;;0.80;0.80;;;11.30;99.90;;;;;;4996102;28;20267;-64
2024/02/25 12:23:58;;;;;;;1.23;1.10;;;11.30;99.90;;;;;;4988434;28;20268;-64
2024/02/25 12:26:25;;;;;;;1.00;0.87;;;11.40;99.90;;;;;;4990947;28;20261;-64
2024/02/25 12:28:52;;;;;;;1.17;1.17;;;11.40;99.90;;;;;;4997226;28;20209;-64
2024/02/25 12:31:19;;;;;;;3.07;0.93;;;11.50;99.90;;;;;;4994448;28;20207;-62
2024/02/25 12:33:50;;;;;;;0.70;0.70;;;11.40;99.90;;;;;;4994594;28;20753;-62
2024/02/25 12:36:17;;;;;;;0.80;0.80;;;11.20;99.90;;;;;;4994812;28;20539;-61
2024/02/25 12:38:48;;;;;;;1.30;0.80;;;11.20;99.90;;;;;;4992573;28;20200;-61
2024/02/25 12:41:15;;;;;;;0.60;0.60;;;11.30;99.90;;;;;;5000714;28;20211;-63
2024/02/25 12:43:44;;;;;;;0.90;0.90;;;11.30;99.90;;;;;;4992226;28;20208;-63
2024/02/25 12:46:12;;;;;;;2.30;1.00;;;11.20;99.90;;;;;;4993486;28;20229;-64
2024/02/25 12:48:39;;;;;;;0.80;0.80;;;11.10;99.90;;;;;;4996370;28;20285;-63
2024/02/25 12:51:09;;;;;;;2.80;1.03;;;11.20;99.90;;;;;;4994819;28;20289;-63
2024/02/25 12:53:36;;;;;;;1.07;0.63;;;11.10;99.90;;;;;;4994741;28;20252;-63
2024/02/25 12:56:04;;;;;;;0.90;0.90;;;10.80;99.90;;;;;;4996296;28;20614;-63
2024/02/25 12:58:31;;;;;;;1.70;0.60;;;10.80;99.90;;;;;;4993805;28;20210;-63
2024/02/25 13:00:58;;;;;;;0.80;0.80;;;10.80;99.90;;;;;;4994278;28;20676;-63